EGPY weather

CLOSED Dounreay/Thurso Airport
Thurso, Scotland, United Kingdom

Public forecast

Using degrees Celsius for public forecast. Weather courtesy of forecast.io.

METAR (pilot weather report)

Closest report is Wick Airport, 21.2 nm (39.3 km) ESE. Retrieved 2019/05/27 00:20 UTC (12 minutes ago):

EGPC 270020Z AUTO 04010KT 9999 FEW017/// SCT034/// OVC042/// 07/05 Q1003

TAF (pilot weather forecast)

Forecast is more than 12 hours old.

Closest forecast is RAF Lossiemouth, 54.2 nm (100.3 km) SSE. Retrieved 2019/05/26 00:36 UTC (24 hours ago):

TAF EGQS 262225Z 2700/2718 03018KT 9999 -RA FEW010 BKN025 TEMPO 2700/2704 4000 RA SCT010 OVC024 PROB40 TEMPO 2700/2703 05022G35KT 2000 +RADZ SCT004 BKN010 BECMG 2703/2707 01008KT PROB30 TEMPO 2704/2714 4000 SHRA SHGS SCT012 PROB30 TEMPO 2714/2718 7000 -SHRA SCT018